sensor_id;sensor_type;location;lat;lon;timestamp;temperature;humidity
54260;DHT22;40172;53.022;7.012;2023-06-24T00:01:14;15.50;99.90
54260;DHT22;40172;53.022;7.012;2023-06-24T00:03:40;15.50;99.90
54260;DHT22;40172;53.022;7.012;2023-06-24T00:06:06;15.50;99.90
54260;DHT22;40172;53.022;7.012;2023-06-24T00:08:32;15.40;99.90
54260;DHT22;40172;53.022;7.012;2023-06-24T00:11:02;15.40;99.90
54260;DHT22;40172;53.022;7.012;2023-06-24T00:13:28;15.40;99.90
54260;DHT22;40172;53.022;7.012;2023-06-24T00:15:57;15.40;99.90
54260;DHT22;40172;53.022;7.012;2023-06-24T00:18:22;15.40;99.90
54260;DHT22;40172;53.022;7.012;2023-06-24T00:20:50;15.30;99.90
54260;DHT22;40172;53.022;7.012;2023-06-24T00:23:17;15.20;99.90
54260;DHT22;40172;53.022;7.012;2023-06-24T00:25:46;15.20;99.90
54260;DHT22;40172;53.022;7.012;2023-06-24T00:28:11;15.20;99.90
54260;DHT22;40172;53.022;7.012;2023-06-24T00:30:37;15.20;99.90
54260;DHT22;40172;53.022;7.012;2023-06-24T00:33:02;15.10;99.90
54260;DHT22;40172;53.022;7.012;2023-06-24T00:35:28;15.10;99.90
54260;DHT22;40172;53.022;7.012;2023-06-24T00:37:54;15.00;99.90
54260;DHT22;40172;53.022;7.012;2023-06-24T00:40:23;14.90;99.90
54260;DHT22;40172;53.022;7.012;2023-06-24T00:42:49;14.90;99.90
54260;DHT22;40172;53.022;7.012;2023-06-24T00:45:15;14.90;99.90
54260;DHT22;40172;53.022;7.012;2023-06-24T00:47:41;14.90;99.90
54260;DHT22;40172;53.022;7.012;2023-06-24T00:50:08;14.90;99.90
54260;DHT22;40172;53.022;7.012;2023-06-24T00:52:37;14.80;99.90
54260;DHT22;40172;53.022;7.012;2023-06-24T00:55:11;14.80;99.90
54260;DHT22;40172;53.022;7.012;2023-06-24T00:57:44;14.80;99.90
54260;DHT22;40172;53.022;7.012;2023-06-24T01:00:11;14.80;99.90
54260;DHT22;40172;53.022;7.012;2023-06-24T01:02:42;14.80;99.90
54260;DHT22;40172;53.022;7.012;2023-06-24T01:05:11;14.70;99.90
54260;DHT22;40172;53.022;7.012;2023-06-24T01:07:38;14.70;99.90
54260;DHT22;40172;53.022;7.012;2023-06-24T01:10:05;14.70;99.90
54260;DHT22;40172;53.022;7.012;2023-06-24T01:12:34;14.70;99.90
54260;DHT22;40172;53.022;7.012;2023-06-24T01:15:01;14.70;99.90
54260;DHT22;40172;53.022;7.012;2023-06-24T01:17:45;14.70;99.90
54260;DHT22;40172;53.022;7.012;2023-06-24T01:20:38;14.70;99.90
54260;DHT22;40172;53.022;7.012;2023-06-24T01:26:14;14.60;99.90
54260;DHT22;40172;53.022;7.012;2023-06-24T01:29:10;14.60;99.90
54260;DHT22;40172;53.022;7.012;2023-06-24T01:31:51;14.60;99.90
54260;DHT22;40172;53.022;7.012;2023-06-24T01:34:27;14.60;99.90
54260;DHT22;40172;53.022;7.012;2023-06-24T01:37:27;14.50;99.90
54260;DHT22;40172;53.022;7.012;2023-06-24T01:40:12;14.60;99.90
54260;DHT22;40172;53.022;7.012;2023-06-24T01:42:41;14.60;99.90
54260;DHT22;40172;53.022;7.012;2023-06-24T01:45:15;14.50;99.90
54260;DHT22;40172;53.022;7.012;2023-06-24T01:47:44;14.50;99.90
54260;DHT22;40172;53.022;7.012;2023-06-24T01:50:12;14.50;99.90
54260;DHT22;40172;53.022;7.012;2023-06-24T01:52:41;14.50;99.90
54260;DHT22;40172;53.022;7.012;2023-06-24T01:55:10;14.40;99.90
54260;DHT22;40172;53.022;7.012;2023-06-24T01:57:37;14.40;99.90
54260;DHT22;40172;53.022;7.012;2023-06-24T02:00:04;14.30;99.90
54260;DHT22;40172;53.022;7.012;2023-06-24T02:02:32;14.30;99.90
54260;DHT22;40172;53.022;7.012;2023-06-24T02:04:58;14.30;99.90
54260;DHT22;40172;53.022;7.012;2023-06-24T02:07:28;14.30;99.90
54260;DHT22;40172;53.022;7.012;2023-06-24T02:09:55;14.20;99.90
54260;DHT22;40172;53.022;7.012;2023-06-24T02:12:24;14.20;99.90
54260;DHT22;40172;53.022;7.012;2023-06-24T02:14:51;14.20;99.90
54260;DHT22;40172;53.022;7.012;2023-06-24T02:17:17;14.20;99.90
54260;DHT22;40172;53.022;7.012;2023-06-24T02:19:44;14.20;99.90
54260;DHT22;40172;53.022;7.012;2023-06-24T02:22:11;14.20;99.90
54260;DHT22;40172;53.022;7.012;2023-06-24T02:24:38;14.20;99.90
54260;DHT22;40172;53.022;7.012;2023-06-24T02:27:05;14.20;99.90
54260;DHT22;40172;53.022;7.012;2023-06-24T02:29:32;14.20;99.90
54260;DHT22;40172;53.022;7.012;2023-06-24T02:31:59;14.10;99.90
54260;DHT22;40172;53.022;7.012;2023-06-24T02:34:25;14.10;99.90
54260;DHT22;40172;53.022;7.012;2023-06-24T02:36:50;14.00;99.90
54260;DHT22;40172;53.022;7.012;2023-06-24T02:39:16;13.90;99.90
54260;DHT22;40172;53.022;7.012;2023-06-24T02:41:42;14.00;99.90
54260;DHT22;40172;53.022;7.012;2023-06-24T02:44:08;14.00;99.90
54260;DHT22;40172;53.022;7.012;2023-06-24T02:46:35;14.00;99.90
54260;DHT22;40172;53.022;7.012;2023-06-24T02:49:02;14.00;99.90
54260;DHT22;40172;53.022;7.012;2023-06-24T02:51:28;13.90;99.90
54260;DHT22;40172;53.022;7.012;2023-06-24T02:53:54;13.90;99.90
54260;DHT22;40172;53.022;7.012;2023-06-24T02:56:20;13.80;99.90
54260;DHT22;40172;53.022;7.012;2023-06-24T02:58:47;13.80;99.90
54260;DHT22;40172;53.022;7.012;2023-06-24T03:01:14;13.90;99.90
54260;DHT22;40172;53.022;7.012;2023-06-24T03:03:41;13.90;99.90
54260;DHT22;40172;53.022;7.012;2023-06-24T03:06:07;13.90;99.90
54260;DHT22;40172;53.022;7.012;2023-06-24T03:08:38;14.00;99.90
54260;DHT22;40172;53.022;7.012;2023-06-24T03:11:04;14.00;99.90
54260;DHT22;40172;53.022;7.012;2023-06-24T03:13:30;14.00;99.90
54260;DHT22;40172;53.022;7.012;2023-06-24T03:15:55;14.00;99.90
54260;DHT22;40172;53.022;7.012;2023-06-24T03:18:21;14.00;99.90
54260;DHT22;40172;53.022;7.012;2023-06-24T03:20:46;13.80;99.90
54260;DHT22;40172;53.022;7.012;2023-06-24T03:23:12;14.00;99.90
54260;DHT22;40172;53.022;7.012;2023-06-24T03:25:38;14.00;99.90
54260;DHT22;40172;53.022;7.012;2023-06-24T03:28:03;13.90;99.90
54260;DHT22;40172;53.022;7.012;2023-06-24T03:30:32;13.90;99.90
54260;DHT22;40172;53.022;7.012;2023-06-24T03:32:58;13.90;99.90
54260;DHT22;40172;53.022;7.012;2023-06-24T03:35:24;13.90;99.90
54260;DHT22;40172;53.022;7.012;2023-06-24T03:37:49;13.90;99.90
54260;DHT22;40172;53.022;7.012;2023-06-24T03:40:16;13.90;99.90
54260;DHT22;40172;53.022;7.012;2023-06-24T03:42:42;13.80;99.90
54260;DHT22;40172;53.022;7.012;2023-06-24T03:45:08;13.90;99.90
54260;DHT22;40172;53.022;7.012;2023-06-24T03:47:33;13.90;99.90
54260;DHT22;40172;53.022;7.012;2023-06-24T03:49:59;13.90;99.90
54260;DHT22;40172;53.022;7.012;2023-06-24T03:52:25;14.00;99.90
54260;DHT22;40172;53.022;7.012;2023-06-24T03:54:50;14.00;99.90
54260;DHT22;40172;53.022;7.012;2023-06-24T03:57:16;14.10;99.90
54260;DHT22;40172;53.022;7.012;2023-06-24T03:59:42;14.20;99.90
54260;DHT22;40172;53.022;7.012;2023-06-24T04:02:07;14.30;99.90
54260;DHT22;40172;53.022;7.012;2023-06-24T04:04:34;14.40;99.90
54260;DHT22;40172;53.022;7.012;2023-06-24T04:07:00;14.50;99.90
54260;DHT22;40172;53.022;7.012;2023-06-24T04:09:25;14.50;99.90
54260;DHT22;40172;53.022;7.012;2023-06-24T04:11:51;14.60;99.90
54260;DHT22;40172;53.022;7.012;2023-06-24T04:14:17;14.70;99.90
54260;DHT22;40172;53.022;7.012;2023-06-24T04:16:42;14.80;99.90
54260;DHT22;40172;53.022;7.012;2023-06-24T04:19:08;14.80;99.90
54260;DHT22;40172;53.022;7.012;2023-06-24T04:21:34;14.90;99.90
54260;DHT22;40172;53.022;7.012;2023-06-24T04:23:59;14.90;99.90
54260;DHT22;40172;53.022;7.012;2023-06-24T04:26:25;15.10;99.90
54260;DHT22;40172;53.022;7.012;2023-06-24T04:28:50;15.10;99.90
54260;DHT22;40172;53.022;7.012;2023-06-24T04:31:16;15.20;99.90
54260;DHT22;40172;53.022;7.012;2023-06-24T04:33:42;15.30;99.90
54260;DHT22;40172;53.022;7.012;2023-06-24T04:36:07;15.40;99.90
54260;DHT22;40172;53.022;7.012;2023-06-24T04:38:33;15.40;99.90
54260;DHT22;40172;53.022;7.012;2023-06-24T04:40:58;15.50;99.90
54260;DHT22;40172;53.022;7.012;2023-06-24T04:43:25;15.50;99.90
54260;DHT22;40172;53.022;7.012;2023-06-24T04:45:52;15.60;99.90
54260;DHT22;40172;53.022;7.012;2023-06-24T04:48:20;15.70;99.90
54260;DHT22;40172;53.022;7.012;2023-06-24T04:50:46;15.80;99.90
54260;DHT22;40172;53.022;7.012;2023-06-24T04:53:11;15.90;99.90
54260;DHT22;40172;53.022;7.012;2023-06-24T04:55:38;16.00;99.90
54260;DHT22;40172;53.022;7.012;2023-06-24T04:58:03;16.10;99.90
54260;DHT22;40172;53.022;7.012;2023-06-24T05:00:29;16.20;99.90
54260;DHT22;40172;53.022;7.012;2023-06-24T05:02:55;16.30;99.90
54260;DHT22;40172;53.022;7.012;2023-06-24T05:05:20;16.40;99.90
54260;DHT22;40172;53.022;7.012;2023-06-24T05:07:46;16.80;99.90
54260;DHT22;40172;53.022;7.012;2023-06-24T05:10:11;16.60;99.90
54260;DHT22;40172;53.022;7.012;2023-06-24T05:12:37;16.70;99.90
54260;DHT22;40172;53.022;7.012;2023-06-24T05:15:03;16.80;99.90
54260;DHT22;40172;53.022;7.012;2023-06-24T05:17:28;16.90;99.90
54260;DHT22;40172;53.022;7.012;2023-06-24T05:19:54;17.10;99.90
54260;DHT22;40172;53.022;7.012;2023-06-24T05:22:20;17.20;99.90
54260;DHT22;40172;53.022;7.012;2023-06-24T05:24:45;17.30;99.90
54260;DHT22;40172;53.022;7.012;2023-06-24T05:27:11;17.40;99.90
54260;DHT22;40172;53.022;7.012;2023-06-24T05:29:36;17.40;99.90
54260;DHT22;40172;53.022;7.012;2023-06-24T05:32:02;17.40;99.90
54260;DHT22;40172;53.022;7.012;2023-06-24T05:34:29;17.70;99.90
54260;DHT22;40172;53.022;7.012;2023-06-24T05:36:56;17.80;99.90
54260;DHT22;40172;53.022;7.012;2023-06-24T05:39:21;17.90;99.90
54260;DHT22;40172;53.022;7.012;2023-06-24T05:41:47;18.10;99.90
54260;DHT22;40172;53.022;7.012;2023-06-24T05:44:15;18.20;99.90
54260;DHT22;40172;53.022;7.012;2023-06-24T05:46:43;18.30;99.90
54260;DHT22;40172;53.022;7.012;2023-06-24T05:49:09;18.40;99.90
54260;DHT22;40172;53.022;7.012;2023-06-24T05:51:35;18.60;99.90
54260;DHT22;40172;53.022;7.012;2023-06-24T05:54:00;18.70;99.90
54260;DHT22;40172;53.022;7.012;2023-06-24T05:56:26;18.80;99.90
54260;DHT22;40172;53.022;7.012;2023-06-24T05:58:51;19.00;99.90
54260;DHT22;40172;53.022;7.012;2023-06-24T06:01:17;19.10;99.90
54260;DHT22;40172;53.022;7.012;2023-06-24T06:03:43;19.20;99.90
54260;DHT22;40172;53.022;7.012;2023-06-24T06:06:08;19.30;99.90
54260;DHT22;40172;53.022;7.012;2023-06-24T06:08:34;19.50;99.90
54260;DHT22;40172;53.022;7.012;2023-06-24T06:11:00;19.60;99.90
54260;DHT22;40172;53.022;7.012;2023-06-24T06:13:28;19.70;99.90
54260;DHT22;40172;53.022;7.012;2023-06-24T06:15:54;20.00;99.90
54260;DHT22;40172;53.022;7.012;2023-06-24T06:18:20;19.90;99.90
54260;DHT22;40172;53.022;7.012;2023-06-24T06:20:45;20.30;99.90
54260;DHT22;40172;53.022;7.012;2023-06-24T06:23:11;20.10;99.90
54260;DHT22;40172;53.022;7.012;2023-06-24T06:25:36;20.30;99.90
54260;DHT22;40172;53.022;7.012;2023-06-24T06:28:04;20.50;99.90
54260;DHT22;40172;53.022;7.012;2023-06-24T06:30:29;20.60;99.90
54260;DHT22;40172;53.022;7.012;2023-06-24T06:32:55;20.70;99.90
54260;DHT22;40172;53.022;7.012;2023-06-24T06:35:20;21.00;99.90
54260;DHT22;40172;53.022;7.012;2023-06-24T06:37:46;21.10;99.90
54260;DHT22;40172;53.022;7.012;2023-06-24T06:40:20;21.30;99.90
54260;DHT22;40172;53.022;7.012;2023-06-24T06:42:46;21.50;99.90
54260;DHT22;40172;53.022;7.012;2023-06-24T06:45:11;21.70;99.90
54260;DHT22;40172;53.022;7.012;2023-06-24T06:47:37;21.70;99.90
54260;DHT22;40172;53.022;7.012;2023-06-24T06:50:03;22.10;99.90
54260;DHT22;40172;53.022;7.012;2023-06-24T06:52:29;22.30;99.90
54260;DHT22;40172;53.022;7.012;2023-06-24T06:54:55;22.50;99.90
54260;DHT22;40172;53.022;7.012;2023-06-24T06:57:20;22.70;99.90
54260;DHT22;40172;53.022;7.012;2023-06-24T06:59:46;22.90;99.90
54260;DHT22;40172;53.022;7.012;2023-06-24T07:02:11;23.60;99.90
54260;DHT22;40172;53.022;7.012;2023-06-24T07:04:37;23.20;99.90
54260;DHT22;40172;53.022;7.012;2023-06-24T07:07:03;23.40;99.90
54260;DHT22;40172;53.022;7.012;2023-06-24T07:09:28;23.60;99.90
54260;DHT22;40172;53.022;7.012;2023-06-24T07:11:54;23.80;99.90
54260;DHT22;40172;53.022;7.012;2023-06-24T07:14:19;24.10;99.90
54260;DHT22;40172;53.022;7.012;2023-06-24T07:16:45;24.30;99.90
54260;DHT22;40172;53.022;7.012;2023-06-24T07:19:10;24.60;99.90
54260;DHT22;40172;53.022;7.012;2023-06-24T07:21:37;24.90;99.90
54260;DHT22;40172;53.022;7.012;2023-06-24T07:24:03;25.10;99.90
54260;DHT22;40172;53.022;7.012;2023-06-24T07:26:29;25.40;99.90
54260;DHT22;40172;53.022;7.012;2023-06-24T07:28:58;25.50;99.90
54260;DHT22;40172;53.022;7.012;2023-06-24T07:31:24;25.50;99.90
54260;DHT22;40172;53.022;7.012;2023-06-24T07:33:50;25.60;99.90
54260;DHT22;40172;53.022;7.012;2023-06-24T07:36:15;25.60;99.90
54260;DHT22;40172;53.022;7.012;2023-06-24T07:38:41;25.50;99.90
54260;DHT22;40172;53.022;7.012;2023-06-24T07:41:06;25.50;99.90
54260;DHT22;40172;53.022;7.012;2023-06-24T07:43:32;25.50;99.90
54260;DHT22;40172;53.022;7.012;2023-06-24T07:45:57;25.60;99.90
54260;DHT22;40172;53.022;7.012;2023-06-24T07:48:23;25.60;99.90
54260;DHT22;40172;53.022;7.012;2023-06-24T07:50:48;25.70;99.90
54260;DHT22;40172;53.022;7.012;2023-06-24T07:53:14;25.90;99.90
54260;DHT22;40172;53.022;7.012;2023-06-24T07:55:40;25.90;99.90
54260;DHT22;40172;53.022;7.012;2023-06-24T07:58:06;26.10;99.90
54260;DHT22;40172;53.022;7.012;2023-06-24T08:00:32;25.90;99.90
54260;DHT22;40172;53.022;7.012;2023-06-24T08:02:58;26.10;99.90
54260;DHT22;40172;53.022;7.012;2023-06-24T08:05:24;26.20;99.90
54260;DHT22;40172;53.022;7.012;2023-06-24T08:07:51;26.50;99.90
54260;DHT22;40172;53.022;7.012;2023-06-24T08:10:17;26.70;99.90
54260;DHT22;40172;53.022;7.012;2023-06-24T08:12:43;26.80;99.90
54260;DHT22;40172;53.022;7.012;2023-06-24T08:15:08;27.00;99.90
54260;DHT22;40172;53.022;7.012;2023-06-24T08:17:34;27.10;99.90
54260;DHT22;40172;53.022;7.012;2023-06-24T08:20:01;27.20;99.90
54260;DHT22;40172;53.022;7.012;2023-06-24T08:22:26;27.10;99.90
54260;DHT22;40172;53.022;7.012;2023-06-24T08:24:52;26.90;99.30
54260;DHT22;40172;53.022;7.012;2023-06-24T08:27:17;26.60;99.90
54260;DHT22;40172;53.022;7.012;2023-06-24T08:29:43;26.50;99.90
54260;DHT22;40172;53.022;7.012;2023-06-24T08:32:09;26.40;99.90
54260;DHT22;40172;53.022;7.012;2023-06-24T08:34:34;26.40;99.90
54260;DHT22;40172;53.022;7.012;2023-06-24T08:37:00;26.20;99.90
54260;DHT22;40172;53.022;7.012;2023-06-24T08:39:26;26.50;99.90
54260;DHT22;40172;53.022;7.012;2023-06-24T08:41:52;26.60;99.90
54260;DHT22;40172;53.022;7.012;2023-06-24T08:44:17;26.70;99.30
54260;DHT22;40172;53.022;7.012;2023-06-24T08:46:43;26.80;99.20
54260;DHT22;40172;53.022;7.012;2023-06-24T08:49:19;27.00;99.50
54260;DHT22;40172;53.022;7.012;2023-06-24T08:51:50;27.10;99.90
54260;DHT22;40172;53.022;7.012;2023-06-24T08:54:16;27.20;99.90
54260;DHT22;40172;53.022;7.012;2023-06-24T08:56:44;27.10;99.70
54260;DHT22;40172;53.022;7.012;2023-06-24T08:59:10;27.00;98.10
54260;DHT22;40172;53.022;7.012;2023-06-24T09:01:35;26.70;97.70
54260;DHT22;40172;53.022;7.012;2023-06-24T09:04:01;26.60;97.60
54260;DHT22;40172;53.022;7.012;2023-06-24T09:06:27;26.70;98.30
54260;DHT22;40172;53.022;7.012;2023-06-24T09:08:54;26.70;99.20
54260;DHT22;40172;53.022;7.012;2023-06-24T09:11:26;26.80;98.60
54260;DHT22;40172;53.022;7.012;2023-06-24T09:13:56;26.90;99.80
54260;DHT22;40172;53.022;7.012;2023-06-24T09:16:22;27.00;98.60
54260;DHT22;40172;53.022;7.012;2023-06-24T09:18:51;26.90;98.50
54260;DHT22;40172;53.022;7.012;2023-06-24T09:21:27;27.10;97.10
54260;DHT22;40172;53.022;7.012;2023-06-24T09:23:57;27.10;96.60
54260;DHT22;40172;53.022;7.012;2023-06-24T09:26:25;27.10;96.60
54260;DHT22;40172;53.022;7.012;2023-06-24T09:28:51;26.90;95.80
54260;DHT22;40172;53.022;7.012;2023-06-24T09:31:17;26.70;95.50
54260;DHT22;40172;53.022;7.012;2023-06-24T09:33:44;26.70;96.30
54260;DHT22;40172;53.022;7.012;2023-06-24T09:36:14;26.60;96.90
54260;DHT22;40172;53.022;7.012;2023-06-24T09:38:44;26.60;96.60
54260;DHT22;40172;53.022;7.012;2023-06-24T09:41:10;26.60;98.00
54260;DHT22;40172;53.022;7.012;2023-06-24T09:43:36;26.60;98.30
54260;DHT22;40172;53.022;7.012;2023-06-24T09:46:06;26.50;98.00
54260;DHT22;40172;53.022;7.012;2023-06-24T09:48:35;26.70;98.30
54260;DHT22;40172;53.022;7.012;2023-06-24T09:51:03;26.30;97.90
54260;DHT22;40172;53.022;7.012;2023-06-24T09:53:34;26.40;98.10
54260;DHT22;40172;53.022;7.012;2023-06-24T09:56:01;26.50;98.20
54260;DHT22;40172;53.022;7.012;2023-06-24T09:58:33;26.50;97.70
54260;DHT22;40172;53.022;7.012;2023-06-24T10:01:05;26.60;98.10
54260;DHT22;40172;53.022;7.012;2023-06-24T10:03:33;26.60;96.40
54260;DHT22;40172;53.022;7.012;2023-06-24T10:06:01;26.70;96.20
54260;DHT22;40172;53.022;7.012;2023-06-24T10:08:28;26.80;96.00
54260;DHT22;40172;53.022;7.012;2023-06-24T10:10:54;27.00;95.40
54260;DHT22;40172;53.022;7.012;2023-06-24T10:13:19;27.10;95.50
54260;DHT22;40172;53.022;7.012;2023-06-24T10:15:45;27.20;95.20
54260;DHT22;40172;53.022;7.012;2023-06-24T10:18:36;27.30;94.20
54260;DHT22;40172;53.022;7.012;2023-06-24T10:21:03;27.40;94.30
54260;DHT22;40172;53.022;7.012;2023-06-24T10:23:31;27.50;93.10
54260;DHT22;40172;53.022;7.012;2023-06-24T10:25:56;27.50;93.40
54260;DHT22;40172;53.022;7.012;2023-06-24T10:28:22;27.50;93.30
54260;DHT22;40172;53.022;7.012;2023-06-24T10:30:55;27.50;93.30
54260;DHT22;40172;53.022;7.012;2023-06-24T10:33:23;27.60;92.00
54260;DHT22;40172;53.022;7.012;2023-06-24T10:35:49;27.60;92.60
54260;DHT22;40172;53.022;7.012;2023-06-24T10:38:16;27.40;93.00
54260;DHT22;40172;53.022;7.012;2023-06-24T10:40:43;27.60;92.10
54260;DHT22;40172;53.022;7.012;2023-06-24T10:45:53;27.50;90.10
54260;DHT22;40172;53.022;7.012;2023-06-24T10:48:19;27.50;91.00
54260;DHT22;40172;53.022;7.012;2023-06-24T10:50:46;27.50;91.60
54260;DHT22;40172;53.022;7.012;2023-06-24T10:53:12;27.50;90.90
54260;DHT22;40172;53.022;7.012;2023-06-24T10:55:39;27.60;90.80
54260;DHT22;40172;53.022;7.012;2023-06-24T10:58:09;27.20;90.20
54260;DHT22;40172;53.022;7.012;2023-06-24T11:00:35;27.00;91.10
54260;DHT22;40172;53.022;7.012;2023-06-24T11:03:14;26.80;92.80
54260;DHT22;40172;53.022;7.012;2023-06-24T11:05:41;26.90;93.60
54260;DHT22;40172;53.022;7.012;2023-06-24T11:08:08;26.60;92.60
54260;DHT22;40172;53.022;7.012;2023-06-24T11:10:45;26.80;93.60
54260;DHT22;40172;53.022;7.012;2023-06-24T11:13:11;26.80;91.90
54260;DHT22;40172;53.022;7.012;2023-06-24T11:15:38;26.80;92.20
54260;DHT22;40172;53.022;7.012;2023-06-24T11:18:04;26.70;91.80
54260;DHT22;40172;53.022;7.012;2023-06-24T11:20:30;26.70;91.40
54260;DHT22;40172;53.022;7.012;2023-06-24T11:22:55;26.80;92.50
54260;DHT22;40172;53.022;7.012;2023-06-24T11:25:21;26.80;93.50
54260;DHT22;40172;53.022;7.012;2023-06-24T11:27:50;27.00;92.10
54260;DHT22;40172;53.022;7.012;2023-06-24T11:30:16;27.10;91.70
54260;DHT22;40172;53.022;7.012;2023-06-24T11:32:43;27.00;91.80
54260;DHT22;40172;53.022;7.012;2023-06-24T11:35:12;27.00;91.80
54260;DHT22;40172;53.022;7.012;2023-06-24T11:37:41;27.00;93.60
54260;DHT22;40172;53.022;7.012;2023-06-24T11:40:08;27.10;91.70
54260;DHT22;40172;53.022;7.012;2023-06-24T11:42:38;27.20;91.50
54260;DHT22;40172;53.022;7.012;2023-06-24T11:45:09;27.40;91.80
54260;DHT22;40172;53.022;7.012;2023-06-24T11:47:37;27.60;92.60
54260;DHT22;40172;53.022;7.012;2023-06-24T11:50:07;27.60;90.60
54260;DHT22;40172;53.022;7.012;2023-06-24T11:52:40;27.60;90.60
54260;DHT22;40172;53.022;7.012;2023-06-24T11:55:16;27.70;90.70
54260;DHT22;40172;53.022;7.012;2023-06-24T11:57:58;27.60;90.70
54260;DHT22;40172;53.022;7.012;2023-06-24T12:00:27;28.00;90.10
54260;DHT22;40172;53.022;7.012;2023-06-24T12:02:53;28.10;86.50
54260;DHT22;40172;53.022;7.012;2023-06-24T12:05:33;27.80;84.70
54260;DHT22;40172;53.022;7.012;2023-06-24T12:08:11;27.50;85.70
54260;DHT22;40172;53.022;7.012;2023-06-24T12:10:38;27.30;88.00
54260;DHT22;40172;53.022;7.012;2023-06-24T12:13:04;27.30;88.90
54260;DHT22;40172;53.022;7.012;2023-06-24T12:15:34;27.40;87.90
54260;DHT22;40172;53.022;7.012;2023-06-24T12:18:00;27.40;87.30
54260;DHT22;40172;53.022;7.012;2023-06-24T12:20:26;27.40;87.70
54260;DHT22;40172;53.022;7.012;2023-06-24T12:22:52;27.30;86.20
54260;DHT22;40172;53.022;7.012;2023-06-24T12:25:18;27.30;84.00
54260;DHT22;40172;53.022;7.012;2023-06-24T12:27:44;27.40;83.50
54260;DHT22;40172;53.022;7.012;2023-06-24T12:30:10;27.50;87.40
54260;DHT22;40172;53.022;7.012;2023-06-24T12:32:36;27.70;85.00
54260;DHT22;40172;53.022;7.012;2023-06-24T12:35:02;27.80;86.10
54260;DHT22;40172;53.022;7.012;2023-06-24T12:37:32;27.80;86.40
54260;DHT22;40172;53.022;7.012;2023-06-24T12:39:59;27.90;88.20
54260;DHT22;40172;53.022;7.012;2023-06-24T12:42:25;27.80;85.40
54260;DHT22;40172;53.022;7.012;2023-06-24T12:44:50;27.30;82.60
54260;DHT22;40172;53.022;7.012;2023-06-24T12:47:17;27.50;82.40
54260;DHT22;40172;53.022;7.012;2023-06-24T12:49:43;27.50;86.40
54260;DHT22;40172;53.022;7.012;2023-06-24T12:52:09;27.40;87.50
54260;DHT22;40172;53.022;7.012;2023-06-24T12:54:35;27.30;85.30
54260;DHT22;40172;53.022;7.012;2023-06-24T12:57:01;27.20;87.00
54260;DHT22;40172;53.022;7.012;2023-06-24T12:59:27;27.20;88.90
54260;DHT22;40172;53.022;7.012;2023-06-24T13:01:53;27.20;90.50
54260;DHT22;40172;53.022;7.012;2023-06-24T13:04:18;27.30;88.70
54260;DHT22;40172;53.022;7.012;2023-06-24T13:06:46;27.40;85.80
54260;DHT22;40172;53.022;7.012;2023-06-24T13:09:11;27.40;85.20
54260;DHT22;40172;53.022;7.012;2023-06-24T13:11:37;27.50;84.80
54260;DHT22;40172;53.022;7.012;2023-06-24T13:14:03;27.60;85.10
54260;DHT22;40172;53.022;7.012;2023-06-24T13:16:28;27.60;85.40
54260;DHT22;40172;53.022;7.012;2023-06-24T13:18:54;27.50;84.90
54260;DHT22;40172;53.022;7.012;2023-06-24T13:21:20;27.60;86.30
54260;DHT22;40172;53.022;7.012;2023-06-24T13:23:45;27.60;86.20
54260;DHT22;40172;53.022;7.012;2023-06-24T13:26:12;27.60;87.10
54260;DHT22;40172;53.022;7.012;2023-06-24T13:28:37;27.70;86.80
54260;DHT22;40172;53.022;7.012;2023-06-24T13:31:03;27.60;88.20
54260;DHT22;40172;53.022;7.012;2023-06-24T13:33:28;27.40;89.10
54260;DHT22;40172;53.022;7.012;2023-06-24T13:35:55;27.40;88.70
54260;DHT22;40172;53.022;7.012;2023-06-24T13:38:20;27.30;89.70
54260;DHT22;40172;53.022;7.012;2023-06-24T13:40:46;27.10;87.40
54260;DHT22;40172;53.022;7.012;2023-06-24T13:43:11;27.10;88.80
54260;DHT22;40172;53.022;7.012;2023-06-24T13:45:37;26.90;90.30
54260;DHT22;40172;53.022;7.012;2023-06-24T13:48:02;27.00;90.20
54260;DHT22;40172;53.022;7.012;2023-06-24T13:50:28;27.00;90.60
54260;DHT22;40172;53.022;7.012;2023-06-24T13:52:55;26.80;90.30
54260;DHT22;40172;53.022;7.012;2023-06-24T13:55:21;26.80;90.80
54260;DHT22;40172;53.022;7.012;2023-06-24T13:57:46;26.60;91.80
54260;DHT22;40172;53.022;7.012;2023-06-24T14:00:13;26.60;92.70
54260;DHT22;40172;53.022;7.012;2023-06-24T14:02:39;26.60;94.40
54260;DHT22;40172;53.022;7.012;2023-06-24T14:05:05;26.50;93.50
54260;DHT22;40172;53.022;7.012;2023-06-24T14:07:31;26.50;94.50
54260;DHT22;40172;53.022;7.012;2023-06-24T14:09:56;26.40;95.30
54260;DHT22;40172;53.022;7.012;2023-06-24T14:12:22;26.30;94.80
54260;DHT22;40172;53.022;7.012;2023-06-24T14:14:48;26.20;94.20
54260;DHT22;40172;53.022;7.012;2023-06-24T14:17:13;26.10;94.60
54260;DHT22;40172;53.022;7.012;2023-06-24T14:19:40;25.80;96.50
54260;DHT22;40172;53.022;7.012;2023-06-24T14:22:06;25.80;97.20
54260;DHT22;40172;53.022;7.012;2023-06-24T14:24:32;25.70;98.00
54260;DHT22;40172;53.022;7.012;2023-06-24T14:26:58;25.50;98.80
54260;DHT22;40172;53.022;7.012;2023-06-24T14:29:24;25.50;99.30
54260;DHT22;40172;53.022;7.012;2023-06-24T14:31:51;25.40;99.90
54260;DHT22;40172;53.022;7.012;2023-06-24T14:34:16;25.40;99.90
54260;DHT22;40172;53.022;7.012;2023-06-24T14:36:42;25.40;99.90
54260;DHT22;40172;53.022;7.012;2023-06-24T14:39:08;25.40;99.90
54260;DHT22;40172;53.022;7.012;2023-06-24T14:41:33;25.50;99.90
54260;DHT22;40172;53.022;7.012;2023-06-24T14:43:59;25.40;99.90
54260;DHT22;40172;53.022;7.012;2023-06-24T14:46:25;25.50;99.90
54260;DHT22;40172;53.022;7.012;2023-06-24T14:48:51;25.00;99.90
54260;DHT22;40172;53.022;7.012;2023-06-24T14:51:16;25.30;99.90
54260;DHT22;40172;53.022;7.012;2023-06-24T14:53:42;25.20;99.90
54260;DHT22;40172;53.022;7.012;2023-06-24T14:56:07;25.20;99.90
54260;DHT22;40172;53.022;7.012;2023-06-24T14:58:33;25.30;99.90
54260;DHT22;40172;53.022;7.012;2023-06-24T15:00:59;25.30;99.90
54260;DHT22;40172;53.022;7.012;2023-06-24T15:03:24;25.30;99.90
54260;DHT22;40172;53.022;7.012;2023-06-24T15:05:50;25.30;99.90
54260;DHT22;40172;53.022;7.012;2023-06-24T15:08:15;25.10;99.90
54260;DHT22;40172;53.022;7.012;2023-06-24T15:10:41;25.40;99.90
54260;DHT22;40172;53.022;7.012;2023-06-24T15:13:06;25.50;99.90
54260;DHT22;40172;53.022;7.012;2023-06-24T15:15:32;25.60;99.90
54260;DHT22;40172;53.022;7.012;2023-06-24T15:17:57;25.70;99.90
54260;DHT22;40172;53.022;7.012;2023-06-24T15:20:23;25.80;99.90
54260;DHT22;40172;53.022;7.012;2023-06-24T15:22:49;25.80;99.90
54260;DHT22;40172;53.022;7.012;2023-06-24T15:25:14;26.10;99.90
54260;DHT22;40172;53.022;7.012;2023-06-24T15:27:40;25.80;99.90
54260;DHT22;40172;53.022;7.012;2023-06-24T15:30:06;25.80;99.90
54260;DHT22;40172;53.022;7.012;2023-06-24T15:32:31;25.80;99.90
54260;DHT22;40172;53.022;7.012;2023-06-24T15:34:57;25.80;99.90